createdAt,value
2023-05-19T00:00:41.136Z,10.95
2023-05-19T00:01:41.164Z,10.95
2023-05-19T00:02:41.298Z,10.93
2023-05-19T00:03:41.215Z,10.90
2023-05-19T00:04:41.109Z,10.88
2023-05-19T00:05:41.197Z,10.87
2023-05-19T00:06:41.078Z,10.86
2023-05-19T00:07:41.056Z,10.86
2023-05-19T00:08:41.029Z,10.86
2023-05-19T00:09:41.057Z,10.84
2023-05-19T00:10:41.035Z,10.84
2023-05-19T00:11:41.011Z,10.84
2023-05-19T00:12:41.026Z,10.81
2023-05-19T00:13:40.966Z,10.78
2023-05-19T00:14:40.950Z,10.78
2023-05-19T00:15:41.026Z,10.76
2023-05-19T00:16:40.954Z,10.73
2023-05-19T00:17:40.957Z,10.70
2023-05-19T00:18:40.992Z,10.69
2023-05-19T00:19:40.883Z,10.70
2023-05-19T00:20:40.880Z,10.70
2023-05-19T00:21:40.904Z,10.68
2023-05-19T00:22:40.884Z,10.68
2023-05-19T00:23:40.833Z,10.66
2023-05-19T00:24:40.844Z,10.65
2023-05-19T00:25:40.841Z,10.63
2023-05-19T00:26:40.821Z,10.63
2023-05-19T00:27:40.796Z,10.62
2023-05-19T00:28:40.800Z,10.60
2023-05-19T00:29:40.746Z,10.60
2023-05-19T00:30:40.778Z,10.58
2023-05-19T00:31:40.774Z,10.60
2023-05-19T00:32:40.747Z,10.57
2023-05-19T00:33:40.706Z,10.55
2023-05-19T00:34:40.717Z,10.55
2023-05-19T00:35:40.706Z,10.57
2023-05-19T00:36:40.667Z,10.55
2023-05-19T00:37:40.643Z,10.54
2023-05-19T00:38:40.722Z,10.52
2023-05-19T00:39:40.649Z,10.52
2023-05-19T00:40:40.656Z,10.52
2023-05-19T00:41:40.599Z,10.51
2023-05-19T00:42:40.598Z,10.47
2023-05-19T00:43:40.613Z,10.47
2023-05-19T00:44:40.566Z,10.47
2023-05-19T00:45:40.577Z,10.46
2023-05-19T00:46:40.569Z,10.46
2023-05-19T00:47:40.534Z,10.44
2023-05-19T00:48:40.538Z,10.46
2023-05-19T00:49:40.488Z,10.43
2023-05-19T00:50:40.481Z,10.43
2023-05-19T00:51:40.523Z,10.42
2023-05-19T00:52:40.464Z,10.39
2023-05-19T00:53:40.482Z,10.38
2023-05-19T00:54:40.478Z,10.38
2023-05-19T00:55:40.445Z,10.36
2023-05-19T00:56:40.452Z,10.38
2023-05-19T00:57:40.410Z,10.38
2023-05-19T00:58:40.393Z,10.38
2023-05-19T00:59:40.402Z,10.36
2023-05-19T01:00:40.494Z,10.35
2023-05-19T01:01:40.401Z,10.34
2023-05-19T01:02:40.375Z,10.35
2023-05-19T01:03:40.491Z,10.35
2023-05-19T01:04:40.349Z,10.32
2023-05-19T01:05:40.288Z,10.34
2023-05-19T01:06:40.287Z,10.29
2023-05-19T01:07:40.294Z,10.31
2023-05-19T01:08:40.335Z,10.31
2023-05-19T01:09:40.250Z,10.31
2023-05-19T01:10:40.268Z,10.29
2023-05-19T01:11:40.211Z,10.29
2023-05-19T01:12:40.218Z,10.29
2023-05-19T01:13:41.954Z,10.25
2023-05-19T01:14:40.213Z,10.24
2023-05-19T01:15:40.170Z,10.24
2023-05-19T01:16:40.225Z,10.24
2023-05-19T01:17:40.181Z,10.24
2023-05-19T01:18:40.190Z,10.20
2023-05-19T01:19:40.149Z,10.22
2023-05-19T01:20:40.126Z,10.18
2023-05-19T01:21:40.096Z,10.18
2023-05-19T01:22:40.104Z,10.18
2023-05-19T01:23:40.076Z,10.16
2023-05-19T01:24:40.087Z,10.16
2023-05-19T01:25:40.027Z,10.11
2023-05-19T01:26:40.053Z,10.11
2023-05-19T01:27:40.007Z,10.11
2023-05-19T01:28:40.027Z,10.10
2023-05-19T01:29:39.981Z,10.10
2023-05-19T01:30:40.012Z,10.09
2023-05-19T01:31:39.958Z,10.11
2023-05-19T01:32:39.981Z,10.09
2023-05-19T01:33:39.957Z,10.09
2023-05-19T01:34:40.847Z,10.09
2023-05-19T01:35:39.919Z,10.10
2023-05-19T01:36:39.913Z,10.09
2023-05-19T01:37:39.921Z,10.06
2023-05-19T01:38:39.854Z,10.06
2023-05-19T01:39:39.927Z,10.01
2023-05-19T01:40:39.868Z,10.01
2023-05-19T01:41:39.832Z,9.98
2023-05-19T01:42:39.833Z,9.96
2023-05-19T01:43:39.825Z,9.95
2023-05-19T01:44:39.819Z,9.91
2023-05-19T01:45:39.834Z,9.88
2023-05-19T01:46:39.798Z,9.89
2023-05-19T01:47:39.808Z,9.86
2023-05-19T01:48:39.776Z,9.81
2023-05-19T01:49:39.810Z,9.81
2023-05-19T01:50:39.743Z,9.81
2023-05-19T01:51:39.739Z,9.83
2023-05-19T01:52:39.710Z,9.80
2023-05-19T01:53:39.705Z,9.80
2023-05-19T01:54:39.670Z,9.77
2023-05-19T01:55:39.653Z,9.74
2023-05-19T01:56:39.673Z,9.75
2023-05-19T01:57:39.632Z,9.73
2023-05-19T01:58:39.655Z,9.71
2023-05-19T01:59:39.719Z,9.73
2023-05-19T02:00:39.604Z,9.70
2023-05-19T02:01:39.721Z,9.68
2023-05-19T02:02:39.634Z,9.68
2023-05-19T02:03:39.580Z,9.67
2023-05-19T02:04:39.577Z,9.68
2023-05-19T02:05:39.574Z,9.65
2023-05-19T02:06:39.494Z,9.67
2023-05-19T02:07:39.517Z,9.63
2023-05-19T02:08:39.502Z,9.62
2023-05-19T02:09:39.510Z,9.60
2023-05-19T02:10:39.448Z,9.60
2023-05-19T02:11:39.506Z,9.58
2023-05-19T02:12:39.474Z,9.58
2023-05-19T02:13:39.459Z,9.56
2023-05-19T02:14:39.438Z,9.56
2023-05-19T02:15:39.498Z,9.55
2023-05-19T02:16:39.381Z,9.55
2023-05-19T02:17:39.415Z,9.52
2023-05-19T02:18:39.390Z,9.52
2023-05-19T02:19:39.412Z,9.50
2023-05-19T02:20:39.333Z,9.50
2023-05-19T02:21:39.336Z,9.50
2023-05-19T02:22:39.340Z,9.49
2023-05-19T02:23:39.328Z,9.45
2023-05-19T02:24:39.287Z,9.44
2023-05-19T02:25:39.276Z,9.44
2023-05-19T02:26:39.231Z,9.44
2023-05-19T02:27:39.257Z,9.41
2023-05-19T02:28:39.248Z,9.41
2023-05-19T02:29:39.225Z,9.41
2023-05-19T02:30:39.222Z,9.40
2023-05-19T02:31:39.343Z,9.38
2023-05-19T02:32:39.240Z,9.37
2023-05-19T02:33:39.168Z,9.34
2023-05-19T02:34:39.166Z,9.34
2023-05-19T02:35:39.178Z,9.32
2023-05-19T02:36:39.114Z,9.31
2023-05-19T02:37:39.105Z,9.32
2023-05-19T02:38:39.138Z,9.30
2023-05-19T02:39:39.095Z,9.30
2023-05-19T02:40:39.089Z,9.32
2023-05-19T02:41:39.077Z,9.31
2023-05-19T02:42:39.076Z,9.31
2023-05-19T02:43:39.079Z,9.32
2023-05-19T02:44:39.023Z,9.31
2023-05-19T02:45:39.022Z,9.32
2023-05-19T02:46:39.130Z,9.31
2023-05-19T02:47:39.044Z,9.31
2023-05-19T02:48:38.996Z,9.31
2023-05-19T02:49:39.064Z,9.30
2023-05-19T02:50:38.957Z,9.30
2023-05-19T02:51:38.930Z,9.30
2023-05-19T02:52:38.915Z,9.27
2023-05-19T02:53:38.972Z,9.24
2023-05-19T02:54:38.919Z,9.23
2023-05-19T02:55:38.898Z,9.20
2023-05-19T02:56:38.858Z,9.19
2023-05-19T02:57:38.847Z,9.19
2023-05-19T02:58:38.846Z,9.20
2023-05-19T02:59:38.863Z,9.20
2023-05-19T03:00:38.808Z,9.17
2023-05-19T03:01:38.827Z,9.19
2023-05-19T03:02:38.880Z,9.17
2023-05-19T03:03:38.869Z,9.17
2023-05-19T03:04:38.803Z,9.19
2023-05-19T03:05:38.800Z,9.20
2023-05-19T03:06:38.757Z,9.20
2023-05-19T03:07:38.727Z,9.20
2023-05-19T03:08:40.148Z,9.20
2023-05-19T03:09:38.750Z,9.19
2023-05-19T03:10:38.686Z,9.19
2023-05-19T03:11:38.682Z,9.17
2023-05-19T03:12:38.646Z,9.17
2023-05-19T03:13:38.700Z,9.16
2023-05-19T03:14:38.776Z,9.13
2023-05-19T03:15:38.624Z,9.13
2023-05-19T03:16:38.674Z,9.13
2023-05-19T03:17:38.702Z,9.08
2023-05-19T03:18:38.654Z,9.08
2023-05-19T03:19:38.647Z,9.06
2023-05-19T03:20:40.288Z,9.06
2023-05-19T03:21:38.566Z,9.08
2023-05-19T03:22:38.528Z,9.04
2023-05-19T03:23:38.552Z,9.01
2023-05-19T03:24:38.532Z,9.00
2023-05-19T03:25:38.522Z,8.98
2023-05-19T03:26:38.513Z,8.97
2023-05-19T03:27:38.502Z,8.96
2023-05-19T03:28:38.445Z,8.94
2023-05-19T03:29:38.477Z,8.94
2023-05-19T03:30:38.431Z,8.94
2023-05-19T03:31:38.428Z,8.94
2023-05-19T03:32:38.494Z,8.94
2023-05-19T03:33:38.448Z,8.94
2023-05-19T03:34:38.432Z,8.91
2023-05-19T03:35:38.385Z,8.93
2023-05-19T03:36:38.357Z,8.94
2023-05-19T03:37:38.367Z,8.91
2023-05-19T03:38:38.325Z,8.91
2023-05-19T03:39:38.371Z,8.91
2023-05-19T03:40:38.291Z,8.88
2023-05-19T03:41:38.297Z,8.88
2023-05-19T03:42:38.301Z,8.88
2023-05-19T03:43:38.278Z,8.88
2023-05-19T03:44:38.259Z,8.88
2023-05-19T03:45:38.289Z,8.89
2023-05-19T03:46:38.254Z,8.88
2023-05-19T03:47:38.281Z,8.88
2023-05-19T03:48:38.215Z,8.86
2023-05-19T03:49:38.238Z,8.86
2023-05-19T03:50:38.196Z,8.88
2023-05-19T03:51:38.163Z,8.85
2023-05-19T03:52:38.202Z,8.82
2023-05-19T03:53:38.173Z,8.83
2023-05-19T03:54:38.142Z,8.83
2023-05-19T03:55:38.127Z,8.80
2023-05-19T03:56:38.119Z,8.80
2023-05-19T03:57:38.092Z,8.79
2023-05-19T03:58:38.098Z,8.80
2023-05-19T03:59:38.134Z,8.82
2023-05-19T04:00:38.026Z,8.82
2023-05-19T04:01:38.067Z,8.83
2023-05-19T04:02:38.149Z,8.82
2023-05-19T04:03:38.091Z,8.86
2023-05-19T04:04:38.183Z,8.83
2023-05-19T04:05:37.990Z,8.82
2023-05-19T04:06:37.999Z,8.80
2023-05-19T04:07:37.998Z,8.82
2023-05-19T04:08:37.968Z,8.82
2023-05-19T04:09:37.970Z,8.82
2023-05-19T04:10:37.931Z,8.82
2023-05-19T04:11:37.902Z,8.82
2023-05-19T04:12:37.874Z,8.83
2023-05-19T04:13:37.885Z,8.82
2023-05-19T04:14:37.878Z,8.82
2023-05-19T04:15:37.961Z,8.80
2023-05-19T04:16:37.849Z,8.82
2023-05-19T04:17:37.866Z,8.82
2023-05-19T04:18:37.866Z,8.83
2023-05-19T04:19:37.845Z,8.85
2023-05-19T04:20:37.824Z,8.85
2023-05-19T04:21:37.817Z,8.86
2023-05-19T04:22:37.756Z,8.86
2023-05-19T04:23:37.786Z,8.85
2023-05-19T04:24:37.784Z,8.83
2023-05-19T04:25:37.737Z,8.85
2023-05-19T04:26:37.726Z,8.86
2023-05-19T04:27:37.701Z,8.88
2023-05-19T04:28:37.706Z,8.86
2023-05-19T04:29:37.684Z,8.88
2023-05-19T04:30:37.681Z,8.86
2023-05-19T04:31:37.791Z,8.88
2023-05-19T04:32:37.805Z,8.88
2023-05-19T04:33:37.618Z,8.91
2023-05-19T04:34:37.617Z,8.91
2023-05-19T04:35:37.589Z,8.91
2023-05-19T04:36:37.574Z,8.93
2023-05-19T04:37:37.570Z,8.96
2023-05-19T04:38:37.595Z,8.96
2023-05-19T04:39:37.635Z,8.98
2023-05-19T04:40:37.525Z,8.98
2023-05-19T04:41:37.550Z,8.98
2023-05-19T04:42:37.518Z,9.00
2023-05-19T04:43:37.487Z,9.00
2023-05-19T04:44:37.481Z,9.01
2023-05-19T04:45:37.475Z,9.04
2023-05-19T04:46:37.497Z,9.08
2023-05-19T04:47:37.503Z,9.12
2023-05-19T04:48:37.437Z,9.13
2023-05-19T04:49:37.492Z,9.15
2023-05-19T04:50:37.429Z,9.15
2023-05-19T04:51:37.388Z,9.16
2023-05-19T04:52:37.369Z,9.17
2023-05-19T04:53:37.421Z,9.19
2023-05-19T04:54:37.351Z,9.20
2023-05-19T04:55:37.375Z,9.20
2023-05-19T04:56:37.324Z,9.20
2023-05-19T04:57:37.336Z,9.22
2023-05-19T04:58:37.756Z,9.24
2023-05-19T04:59:37.333Z,9.30
2023-05-19T05:00:37.286Z,9.34
2023-05-19T05:01:37.267Z,9.37
2023-05-19T05:02:37.373Z,9.38
2023-05-19T05:03:37.356Z,9.42
2023-05-19T05:04:37.221Z,9.45
2023-05-19T05:05:37.205Z,9.50
2023-05-19T05:06:37.194Z,9.49
2023-05-19T05:07:37.267Z,9.52
2023-05-19T05:08:37.159Z,9.53
2023-05-19T05:09:37.229Z,9.56
2023-05-19T05:10:37.151Z,9.58
2023-05-19T05:11:37.134Z,9.58
2023-05-19T05:12:37.131Z,9.59
2023-05-19T05:13:37.127Z,9.60
2023-05-19T05:14:37.094Z,9.60
2023-05-19T05:15:37.112Z,9.63
2023-05-19T05:16:37.108Z,9.67
2023-05-19T05:17:37.085Z,9.70
2023-05-19T05:18:37.050Z,9.73
2023-05-19T05:19:37.069Z,9.73
2023-05-19T05:20:37.040Z,9.74
2023-05-19T05:21:37.018Z,9.77
2023-05-19T05:22:36.997Z,9.80
2023-05-19T05:23:36.972Z,9.83
2023-05-19T05:24:36.952Z,9.88
2023-05-19T05:25:36.956Z,9.88
2023-05-19T05:26:36.911Z,9.92
2023-05-19T05:27:36.952Z,9.93
2023-05-19T05:28:36.919Z,9.95
2023-05-19T05:29:36.956Z,9.95
2023-05-19T05:30:36.889Z,9.99
2023-05-19T05:31:36.896Z,10.01
2023-05-19T05:32:36.986Z,10.02
2023-05-19T05:33:36.923Z,10.07
2023-05-19T05:34:36.836Z,10.10
2023-05-19T05:35:36.819Z,10.13
2023-05-19T05:36:36.781Z,10.17
2023-05-19T05:37:36.809Z,10.20
2023-05-19T05:38:36.769Z,10.24
2023-05-19T05:39:36.771Z,10.28
2023-05-19T05:40:36.800Z,10.29
2023-05-19T05:41:36.762Z,10.31
2023-05-19T05:42:36.729Z,10.35
2023-05-19T05:43:36.728Z,10.35
2023-05-19T05:44:36.728Z,10.35
2023-05-19T05:45:36.815Z,10.36
2023-05-19T05:46:36.723Z,10.34
2023-05-19T05:47:36.734Z,10.34
2023-05-19T05:48:36.668Z,10.35
2023-05-19T05:49:36.709Z,10.35
2023-05-19T05:50:36.652Z,10.35
2023-05-19T05:51:36.599Z,10.36
2023-05-19T05:52:36.590Z,10.38
2023-05-19T05:53:36.570Z,10.38
2023-05-19T05:54:36.611Z,10.39
2023-05-19T05:55:36.574Z,10.43
2023-05-19T05:56:36.560Z,10.44
2023-05-19T05:57:36.527Z,10.47
2023-05-19T05:58:37.414Z,10.51
2023-05-19T05:59:36.532Z,10.54
2023-05-19T06:00:36.704Z,10.57
2023-05-19T06:01:36.497Z,10.58
2023-05-19T06:02:36.553Z,10.60
2023-05-19T06:03:36.498Z,10.62
2023-05-19T06:04:36.489Z,10.62
2023-05-19T06:05:36.487Z,10.63
2023-05-19T06:06:36.475Z,10.66
2023-05-19T06:07:36.386Z,10.68
2023-05-19T06:08:36.405Z,10.70
2023-05-19T06:09:36.370Z,10.72
2023-05-19T06:10:36.635Z,10.75
2023-05-19T06:11:36.369Z,10.73
2023-05-19T06:12:36.364Z,10.75
2023-05-19T06:13:36.339Z,10.76
2023-05-19T06:14:36.356Z,10.80
2023-05-19T06:15:36.301Z,10.81
2023-05-19T06:16:36.443Z,10.84
2023-05-19T06:17:36.329Z,10.86
2023-05-19T06:18:36.341Z,10.90
2023-05-19T06:19:36.273Z,10.91
2023-05-19T06:20:36.384Z,10.94
2023-05-19T06:21:36.253Z,10.99
2023-05-19T06:22:36.248Z,11.01
2023-05-19T06:23:36.199Z,11.06
2023-05-19T06:24:38.771Z,11.11
2023-05-19T06:25:36.204Z,11.19
2023-05-19T06:26:36.181Z,11.24
2023-05-19T06:27:36.157Z,11.30
2023-05-19T06:28:36.147Z,11.35
2023-05-19T06:29:36.123Z,11.38
2023-05-19T06:30:36.141Z,11.42
2023-05-19T06:31:36.122Z,11.45
2023-05-19T06:32:36.166Z,11.48
2023-05-19T06:33:36.112Z,11.57
2023-05-19T06:34:36.068Z,11.64
2023-05-19T06:35:36.064Z,11.67
2023-05-19T06:36:36.064Z,11.72
2023-05-19T06:37:36.042Z,11.78
2023-05-19T06:38:36.035Z,11.81
2023-05-19T06:39:36.058Z,11.85
2023-05-19T06:40:35.981Z,11.90
2023-05-19T06:41:35.988Z,11.94
2023-05-19T06:42:36.010Z,11.94
2023-05-19T06:43:35.952Z,11.97
2023-05-19T06:44:35.954Z,12.01
2023-05-19T06:45:35.933Z,12.07
2023-05-19T06:46:35.970Z,12.16
2023-05-19T06:47:35.918Z,12.25
2023-05-19T06:48:35.901Z,12.34
2023-05-19T06:49:35.954Z,12.41
2023-05-19T06:50:35.938Z,12.48
2023-05-19T06:51:35.876Z,12.54
2023-05-19T06:52:35.868Z,12.56
2023-05-19T06:53:35.838Z,12.62
2023-05-19T06:54:35.860Z,12.70
2023-05-19T06:55:41.391Z,12.77
2023-05-19T06:56:36.811Z,12.81
2023-05-19T06:57:35.754Z,12.87
2023-05-19T06:58:35.798Z,12.89
2023-05-19T06:59:35.781Z,12.95
2023-05-19T07:00:36.021Z,13.03
2023-05-19T07:01:35.764Z,13.07
2023-05-19T07:02:35.807Z,13.09
2023-05-19T07:03:35.862Z,13.16
2023-05-19T07:04:35.734Z,13.19
2023-05-19T07:05:35.666Z,13.24
2023-05-19T07:06:35.681Z,13.28
2023-05-19T07:07:35.666Z,13.28
2023-05-19T07:08:35.647Z,13.36
2023-05-19T07:09:35.658Z,13.41
2023-05-19T07:10:35.692Z,13.44
2023-05-19T07:11:35.578Z,13.47
2023-05-19T07:12:35.562Z,13.51
2023-05-19T07:13:35.555Z,13.53
2023-05-19T07:14:35.550Z,13.54
2023-05-19T07:15:35.535Z,13.61
2023-05-19T07:16:35.621Z,13.66
2023-05-19T07:17:35.550Z,13.73
2023-05-19T07:18:35.528Z,13.75
2023-05-19T07:19:35.492Z,13.66
2023-05-19T07:20:35.509Z,13.62
2023-05-19T07:21:35.441Z,13.62
2023-05-19T07:22:35.438Z,13.63
2023-05-19T07:23:35.483Z,13.66
2023-05-19T07:24:35.434Z,13.71
2023-05-19T07:25:35.387Z,13.75
2023-05-19T07:26:35.394Z,13.80
2023-05-19T07:27:35.396Z,13.84
2023-05-19T07:28:35.413Z,13.91
2023-05-19T07:29:35.351Z,13.94
2023-05-19T07:30:35.526Z,13.98
2023-05-19T07:31:35.365Z,14.04
2023-05-19T07:32:35.379Z,14.06
2023-05-19T07:33:35.329Z,14.12
2023-05-19T07:34:35.320Z,14.20
2023-05-19T07:35:35.273Z,14.24
2023-05-19T07:36:35.271Z,14.34
2023-05-19T07:37:35.265Z,14.36
2023-05-19T07:38:35.323Z,14.41
2023-05-19T07:39:35.230Z,14.44
2023-05-19T07:40:35.342Z,14.48
2023-05-19T07:41:36.438Z,14.52
2023-05-19T07:42:35.210Z,14.56
2023-05-19T07:43:35.223Z,14.59
2023-05-19T07:44:35.181Z,14.61
2023-05-19T07:45:35.191Z,14.60
2023-05-19T07:46:35.204Z,14.61
2023-05-19T07:47:35.130Z,14.67
2023-05-19T07:48:35.141Z,14.75
2023-05-19T07:49:35.129Z,14.78
2023-05-19T07:50:35.108Z,14.79
2023-05-19T07:51:35.049Z,14.82
2023-05-19T07:52:35.095Z,14.86
2023-05-19T07:53:35.059Z,14.95
2023-05-19T07:54:35.026Z,15.03
2023-05-19T07:55:35.042Z,15.07
2023-05-19T07:56:35.062Z,15.13
2023-05-19T07:57:34.978Z,15.22
2023-05-19T07:58:35.024Z,15.28
2023-05-19T07:59:34.971Z,15.30
2023-05-19T08:00:35.226Z,15.35
2023-05-19T08:01:34.966Z,15.40
2023-05-19T08:02:35.003Z,15.43
2023-05-19T08:03:35.113Z,15.48
2023-05-19T08:04:35.001Z,15.52
2023-05-19T08:05:34.938Z,15.60
2023-05-19T08:06:35.663Z,15.67
2023-05-19T08:07:34.868Z,15.73
2023-05-19T08:08:34.929Z,15.78
2023-05-19T08:09:34.842Z,15.80
2023-05-19T08:10:35.093Z,15.86
2023-05-19T08:11:34.815Z,15.88
2023-05-19T08:12:34.790Z,15.89
2023-05-19T08:13:34.860Z,15.93
2023-05-19T08:14:34.797Z,15.99
2023-05-19T08:15:35.486Z,16.04
2023-05-19T08:16:34.751Z,16.08
2023-05-19T08:17:34.813Z,16.10
2023-05-19T08:18:34.772Z,16.13
2023-05-19T08:19:34.715Z,16.16
2023-05-19T08:20:35.001Z,16.18
2023-05-19T08:21:34.722Z,16.16
2023-05-19T08:22:34.680Z,16.16
2023-05-19T08:23:34.714Z,16.13
2023-05-19T08:24:34.687Z,16.11
2023-05-19T08:25:34.638Z,16.08
2023-05-19T08:26:36.888Z,16.14
2023-05-19T08:27:34.604Z,16.14
2023-05-19T08:28:34.628Z,16.10
2023-05-19T08:29:34.598Z,16.07
2023-05-19T08:30:34.686Z,16.08
2023-05-19T08:31:34.640Z,16.07
2023-05-19T08:32:34.622Z,16.08
2023-05-19T08:33:34.553Z,16.07
2023-05-19T08:34:34.605Z,16.10
2023-05-19T08:35:34.527Z,16.14
2023-05-19T08:36:34.492Z,16.23
2023-05-19T08:37:34.486Z,16.30
2023-05-19T08:38:34.483Z,16.37
2023-05-19T08:39:34.481Z,16.41
2023-05-19T08:40:34.807Z,16.44
2023-05-19T08:41:34.439Z,16.47
2023-05-19T08:42:34.416Z,16.45
2023-05-19T08:43:34.381Z,16.45
2023-05-19T08:44:34.432Z,16.54
2023-05-19T08:45:34.666Z,16.62
2023-05-19T08:46:34.421Z,16.66
2023-05-19T08:47:34.354Z,16.73
2023-05-19T08:48:34.348Z,16.77
2023-05-19T08:49:34.309Z,16.75
2023-05-19T08:50:34.530Z,16.65
2023-05-19T08:51:34.309Z,16.51
2023-05-19T08:52:34.271Z,16.42
2023-05-19T08:53:34.869Z,16.41
2023-05-19T08:54:35.055Z,16.37
2023-05-19T08:55:34.678Z,16.33
2023-05-19T08:56:34.225Z,16.41
2023-05-19T08:57:34.250Z,16.44
2023-05-19T08:58:34.213Z,16.50
2023-05-19T08:59:34.205Z,16.51
2023-05-19T09:00:34.529Z,16.54
2023-05-19T09:01:34.213Z,16.55
2023-05-19T09:02:34.228Z,16.62
2023-05-19T09:03:34.215Z,16.70
2023-05-19T09:04:34.393Z,16.78
2023-05-19T09:05:34.484Z,16.80
2023-05-19T09:06:34.143Z,16.80
2023-05-19T09:07:34.106Z,16.84
2023-05-19T09:08:34.083Z,16.91
2023-05-19T09:09:34.114Z,16.96
2023-05-19T09:10:34.051Z,16.99
2023-05-19T09:11:34.054Z,17.02
2023-05-19T09:12:34.822Z,16.98
2023-05-19T09:13:33.994Z,16.95
2023-05-19T09:14:34.011Z,16.98
2023-05-19T09:15:34.490Z,17.00
2023-05-19T09:16:34.207Z,17.02
2023-05-19T09:17:34.074Z,16.96
2023-05-19T09:18:34.009Z,16.95
2023-05-19T09:19:34.022Z,16.99
2023-05-19T09:20:33.939Z,16.99
2023-05-19T09:21:33.914Z,16.98
2023-05-19T09:22:33.892Z,16.96
2023-05-19T09:23:33.975Z,17.03
2023-05-19T09:24:33.910Z,17.09
2023-05-19T09:25:34.127Z,17.18
2023-05-19T09:26:33.871Z,17.18
2023-05-19T09:27:33.832Z,17.14
2023-05-19T09:28:33.872Z,17.14
2023-05-19T09:29:33.814Z,17.17
2023-05-19T09:30:33.834Z,17.18
2023-05-19T09:31:33.797Z,17.10
2023-05-19T09:32:33.799Z,17.14
2023-05-19T09:33:33.788Z,17.15
2023-05-19T09:34:33.843Z,17.21
2023-05-19T09:35:33.986Z,17.22
2023-05-19T09:36:33.724Z,17.32
2023-05-19T09:37:41.287Z,17.38
2023-05-19T09:38:33.709Z,17.38
2023-05-19T09:39:34.434Z,17.35
2023-05-19T09:40:33.806Z,17.24
2023-05-19T09:41:33.659Z,17.27
2023-05-19T09:42:33.654Z,17.30
2023-05-19T09:43:33.702Z,17.33
2023-05-19T09:44:33.630Z,17.38
2023-05-19T09:45:33.837Z,17.51
2023-05-19T09:46:33.644Z,17.57
2023-05-19T09:47:33.636Z,17.53
2023-05-19T09:48:33.550Z,17.47
2023-05-19T09:49:33.578Z,17.51
2023-05-19T09:50:33.547Z,17.57
2023-05-19T09:51:33.495Z,17.66
2023-05-19T09:52:33.530Z,17.81
2023-05-19T09:53:33.483Z,17.94
2023-05-19T09:54:33.496Z,17.99
2023-05-19T09:55:33.671Z,18.10
2023-05-19T09:56:33.455Z,18.26
2023-05-19T09:57:33.424Z,18.32
2023-05-19T09:58:33.472Z,18.39
2023-05-19T09:59:34.136Z,18.39
2023-05-19T10:00:33.727Z,18.36
2023-05-19T10:01:33.524Z,18.16
2023-05-19T10:02:33.412Z,18.05
2023-05-19T10:03:33.406Z,18.07
2023-05-19T10:04:33.411Z,18.02
2023-05-19T10:05:33.591Z,17.98
2023-05-19T10:06:33.335Z,17.94
2023-05-19T10:07:33.334Z,17.94
2023-05-19T10:08:33.310Z,17.87
2023-05-19T10:09:33.318Z,17.89
2023-05-19T10:10:33.254Z,17.84
2023-05-19T10:11:33.265Z,17.79
2023-05-19T10:12:33.228Z,17.77
2023-05-19T10:13:33.231Z,17.81
2023-05-19T10:14:33.223Z,17.83
2023-05-19T10:15:36.190Z,17.83
2023-05-19T10:16:34.195Z,17.87
2023-05-19T10:17:33.218Z,17.91
2023-05-19T10:18:33.187Z,17.98
2023-05-19T10:19:33.341Z,18.07
2023-05-19T10:20:33.402Z,18.11
2023-05-19T10:21:33.156Z,18.17
2023-05-19T10:22:33.141Z,18.26
2023-05-19T10:23:33.140Z,18.36
2023-05-19T10:24:33.097Z,18.44
2023-05-19T10:25:33.289Z,18.47
2023-05-19T10:26:33.070Z,18.51
2023-05-19T10:27:33.072Z,18.51
2023-05-19T10:28:33.022Z,18.59
2023-05-19T10:29:33.053Z,18.66
2023-05-19T10:30:33.006Z,18.72
2023-05-19T10:31:33.026Z,18.74
2023-05-19T10:32:33.134Z,18.56
2023-05-19T10:33:33.015Z,18.44
2023-05-19T10:34:32.992Z,18.39
2023-05-19T10:35:33.032Z,18.31
2023-05-19T10:36:32.965Z,18.26
2023-05-19T10:37:32.925Z,18.11
2023-05-19T10:38:32.906Z,18.07
2023-05-19T10:39:32.912Z,18.02
2023-05-19T10:40:32.967Z,17.98
2023-05-19T10:41:32.898Z,18.05
2023-05-19T10:42:32.866Z,18.13
2023-05-19T10:43:32.884Z,18.23
2023-05-19T10:44:32.899Z,18.19
2023-05-19T10:45:32.989Z,18.20
2023-05-19T10:46:32.852Z,18.19
2023-05-19T10:47:32.894Z,18.25
2023-05-19T10:48:32.834Z,18.32
2023-05-19T10:49:32.789Z,18.41
2023-05-19T10:50:32.841Z,18.50
2023-05-19T10:51:32.973Z,18.62
2023-05-19T10:52:32.758Z,18.75
2023-05-19T10:53:32.812Z,18.86
2023-05-19T10:54:32.696Z,18.94
2023-05-19T10:55:32.973Z,18.99
2023-05-19T10:56:32.702Z,18.99
2023-05-19T10:57:32.697Z,18.97
2023-05-19T10:58:32.714Z,19.01
2023-05-19T10:59:32.687Z,19.01
2023-05-19T11:00:32.653Z,18.87
2023-05-19T11:01:32.669Z,18.89
2023-05-19T11:02:32.642Z,18.87
2023-05-19T11:03:32.643Z,18.94
2023-05-19T11:04:32.768Z,19.07
2023-05-19T11:05:32.752Z,19.16
2023-05-19T11:06:32.536Z,19.25
2023-05-19T11:07:32.573Z,19.34
2023-05-19T11:08:32.566Z,19.40
2023-05-19T11:09:39.973Z,19.40
2023-05-19T11:10:33.552Z,19.42
2023-05-19T11:11:33.228Z,19.40
2023-05-19T11:12:32.522Z,19.42
2023-05-19T11:13:32.485Z,19.38
2023-05-19T11:14:32.458Z,19.23
2023-05-19T11:15:32.696Z,19.07
2023-05-19T11:16:32.569Z,18.89
2023-05-19T11:17:33.205Z,18.84
2023-05-19T11:18:32.420Z,18.86
2023-05-19T11:19:32.405Z,18.84
2023-05-19T11:20:32.386Z,18.87
2023-05-19T11:21:32.459Z,18.93
2023-05-19T11:22:32.382Z,18.96
2023-05-19T11:23:33.442Z,19.01
2023-05-19T11:24:32.336Z,18.94
2023-05-19T11:25:32.528Z,18.93
2023-05-19T11:26:32.286Z,18.93
2023-05-19T11:27:32.294Z,18.93
2023-05-19T11:28:32.264Z,18.90
2023-05-19T11:29:33.525Z,18.87
2023-05-19T11:30:32.301Z,18.86
2023-05-19T11:31:32.316Z,18.86
2023-05-19T11:32:32.283Z,18.83
2023-05-19T11:33:32.286Z,18.82
2023-05-19T11:34:32.224Z,18.78
2023-05-19T11:35:34.019Z,18.84
2023-05-19T11:36:32.183Z,18.90
2023-05-19T11:37:32.218Z,18.94
2023-05-19T11:38:32.179Z,18.96
2023-05-19T11:39:32.154Z,19.06
2023-05-19T11:40:32.116Z,19.12
2023-05-19T11:41:32.110Z,19.16
2023-05-19T11:42:32.117Z,19.21
2023-05-19T11:43:32.100Z,19.17
2023-05-19T11:44:32.077Z,19.12
2023-05-19T11:45:32.351Z,19.09
2023-05-19T11:46:32.161Z,19.09
2023-05-19T11:47:39.122Z,19.09
2023-05-19T11:48:33.008Z,19.10
2023-05-19T11:49:32.057Z,19.10
2023-05-19T11:50:31.979Z,19.15
2023-05-19T11:51:31.997Z,19.21
2023-05-19T11:52:31.986Z,19.23
2023-05-19T11:53:33.419Z,19.16
2023-05-19T11:54:31.929Z,19.15
2023-05-19T11:55:31.937Z,19.20
2023-05-19T11:56:31.940Z,19.25
2023-05-19T11:57:31.893Z,19.30
2023-05-19T11:58:31.912Z,19.34
2023-05-19T11:59:33.524Z,19.38
2023-05-19T12:00:31.892Z,19.42
2023-05-19T12:01:31.909Z,19.47
2023-05-19T12:02:31.921Z,19.52
2023-05-19T12:03:31.884Z,19.55
2023-05-19T12:04:31.868Z,19.57
2023-05-19T12:05:34.508Z,19.61
2023-05-19T12:06:31.852Z,19.64
2023-05-19T12:07:31.781Z,19.64
2023-05-19T12:08:31.815Z,19.62
2023-05-19T12:09:31.760Z,19.67
2023-05-19T12:10:31.755Z,19.67
2023-05-19T12:11:31.753Z,19.65
2023-05-19T12:12:31.706Z,19.62
2023-05-19T12:13:31.694Z,19.60
2023-05-19T12:14:31.708Z,19.55
2023-05-19T12:15:32.025Z,19.52
2023-05-19T12:16:33.273Z,19.50
2023-05-19T12:17:31.652Z,19.49
2023-05-19T12:18:31.635Z,19.46
2023-05-19T12:19:31.782Z,19.50
2023-05-19T12:20:31.591Z,19.61
2023-05-19T12:21:34.335Z,19.67
2023-05-19T12:22:31.560Z,19.72
2023-05-19T12:23:31.603Z,19.79
2023-05-19T12:24:31.563Z,19.82
2023-05-19T12:25:31.847Z,19.83
2023-05-19T12:26:31.530Z,19.85
2023-05-19T12:27:33.002Z,19.83
2023-05-19T12:28:31.497Z,19.85
2023-05-19T12:29:31.560Z,19.86
2023-05-19T12:30:32.046Z,19.70
2023-05-19T12:31:31.507Z,19.67
2023-05-19T12:32:31.480Z,19.72
2023-05-19T12:33:32.889Z,19.75
2023-05-19T12:34:31.444Z,19.72
2023-05-19T12:35:31.446Z,19.65
2023-05-19T12:36:31.396Z,19.61
2023-05-19T12:37:31.411Z,19.52
2023-05-19T12:38:31.362Z,19.46
2023-05-19T12:39:31.349Z,19.39
2023-05-19T12:40:31.586Z,19.30
2023-05-19T12:41:31.327Z,19.24
2023-05-19T12:42:31.518Z,19.17
2023-05-19T12:43:31.294Z,19.21
2023-05-19T12:44:31.347Z,19.23
2023-05-19T12:45:31.331Z,19.24
2023-05-19T12:46:31.333Z,19.28
2023-05-19T12:47:31.261Z,19.32
2023-05-19T12:48:31.220Z,19.40
2023-05-19T12:49:31.272Z,19.45
2023-05-19T12:50:31.514Z,19.52
2023-05-19T12:51:31.207Z,19.55
2023-05-19T12:52:31.228Z,19.58
2023-05-19T12:53:31.213Z,19.58
2023-05-19T12:54:31.225Z,19.61
2023-05-19T12:55:31.188Z,19.65
2023-05-19T12:56:31.157Z,19.65
2023-05-19T12:57:31.170Z,19.67
2023-05-19T12:58:31.094Z,19.72
2023-05-19T13:00:32.461Z,19.85
2023-05-19T13:01:31.261Z,19.87